Time;durP1;ratioP1;P1;durP2;ratioP2;P2;SDS_P1;SDS_P2;PMS_P1;PMS_P2;Temp;Humidity;BMP_temperature;BMP_pressure;BME280_temperature;BME280_humidity;BME280_pressure;Samples;Min_cycle;Max_cycle;Signal;HPM_P1;HPM_P2
2021/08/27 00:02:21;;;;;;;9.80;8.00;;;;;;;14.89;86.00;98984.81;115481;1201;137463;-54
2021/08/27 00:04:49;;;;;;;8.20;7.20;;;;;;;14.91;86.11;98988.23;115654;1204;22337;-53
2021/08/27 00:07:17;;;;;;;7.70;6.60;;;;;;;14.92;86.11;98996.45;115430;1202;137851;-53
2021/08/27 00:09:51;;;;;;;8.30;7.20;;;;;;;14.93;86.02;98994.63;115596;1204;22319;-53
2021/08/27 00:12:19;;;;;;;8.30;7.10;;;;;;;14.94;86.20;98997.97;115482;1204;22243;-53
2021/08/27 00:14:48;;;;;;;10.30;8.20;;;;;;;14.98;86.23;99003.06;115361;1201;138016;-53
2021/08/27 00:17:36;;;;;;;10.50;8.40;;;;;;;14.98;86.12;99008.21;115640;1210;22342;-53
2021/08/27 00:20:06;;;;;;;9.90;7.80;;;;;;;14.97;85.92;99012.58;115496;1200;137804;-53
2021/08/27 00:22:34;;;;;;;14.50;7.50;;;;;;;14.97;85.88;99012.67;115599;1204;23078;-53
2021/08/27 00:25:11;;;;;;;8.90;6.40;;;;;;;14.99;85.99;99016.31;115515;1201;137887;-53
2021/08/27 00:27:39;;;;;;;8.20;6.20;;;;;;;15.00;85.84;99012.90;115528;1204;22333;-53
2021/08/27 00:30:08;;;;;;;6.40;4.70;;;;;;;15.03;86.03;99014.10;115512;1204;22967;-53
2021/08/27 00:32:36;;;;;;;5.80;4.90;;;;;;;15.05;86.00;99018.23;115364;1201;137834;-53
2021/08/27 00:35:05;;;;;;;7.50;4.50;;;;;;;15.06;85.97;99014.00;115491;1204;22303;-53
2021/08/27 00:37:33;;;;;;;7.90;6.10;;;;;;;15.07;85.97;99015.23;115556;1204;138725;-53
2021/08/27 00:40:03;;;;;;;8.60;6.40;;;;;;;15.07;85.82;99012.27;114054;1204;24078;-53
2021/08/27 00:42:31;;;;;;;9.60;6.50;;;;;;;15.06;85.66;99008.34;115548;1205;23115;-53
2021/08/27 00:44:59;;;;;;;6.50;5.70;;;;;;;15.04;85.54;99004.15;115484;1201;137845;-53
2021/08/27 00:47:27;;;;;;;7.00;6.30;;;;;;;15.03;85.57;99007.52;115444;1205;22391;-53
2021/08/27 00:50:00;;;;;;;6.80;6.10;;;;;;;15.02;85.60;99010.16;115492;1201;138264;-53
2021/08/27 00:52:28;;;;;;;7.50;5.80;;;;;;;15.02;85.60;99011.86;115495;1204;22245;-53
2021/08/27 00:54:56;;;;;;;7.30;5.60;;;;;;;15.02;85.60;99008.34;115335;1200;137841;-53
2021/08/27 00:57:24;;;;;;;7.60;6.40;;;;;;;15.02;85.57;99002.10;115642;1210;22297;-53
2021/08/27 00:59:52;;;;;;;7.20;6.30;;;;;;;15.02;85.48;99007.96;115478;1211;22207;-52
2021/08/27 01:02:20;;;;;;;7.40;5.90;;;;;;;15.01;85.38;99010.17;115376;1203;137778;-53
2021/08/27 01:04:50;;;;;;;7.00;6.20;;;;;;;15.01;85.42;99011.77;115589;1204;22911;-53
2021/08/27 01:07:23;;;;;;;6.70;5.90;;;;;;;15.02;85.53;99018.50;115429;1200;137634;-53
2021/08/27 01:10:10;;;;;;;6.10;5.50;;;;;;;15.02;85.36;99019.92;115596;1204;22360;-52
2021/08/27 01:13:06;;;;;;;5.70;5.20;;;;;;;15.01;85.35;99019.02;115399;1205;23015;-53
2021/08/27 01:15:52;;;;;;;6.50;5.20;;;;;;;14.97;85.13;99010.64;115460;1204;22121;-53
2021/08/27 01:18:39;;;;;;;6.30;5.00;;;;;;;14.96;85.04;99011.48;115611;1210;22350;-53
2021/08/27 01:21:19;;;;;;;7.20;5.10;;;;;;;14.94;85.19;99008.77;115506;1201;137740;-54
2021/08/27 01:23:54;;;;;;;5.70;4.60;;;;;;;14.94;85.20;99003.90;115642;1204;24788;-53
2021/08/27 01:26:25;;;;;;;6.10;4.30;;;;;;;14.92;85.21;99000.58;115585;1202;137605;-53
2021/08/27 01:28:53;;;;;;;5.70;4.60;;;;;;;14.90;84.99;98997.09;115592;1210;22337;-53
2021/08/27 01:32:51;;;;;;;4.80;4.30;;;;;;;14.90;85.12;98998.52;110036;1219;544802;-53
2021/08/27 01:35:20;;;;;;;6.60;4.60;;;;;;;14.86;84.85;99001.33;115311;1208;23134;-54
2021/08/27 01:37:49;;;;;;;6.60;4.20;;;;;;;14.84;84.95;99008.11;115215;1205;137123;-53
2021/08/27 01:40:17;;;;;;;5.60;4.80;;;;;;;14.83;84.89;99010.21;115483;1204;22190;-54
2021/08/27 01:42:45;;;;;;;8.70;5.00;;;;;;;14.81;84.99;99012.38;115579;1203;23419;-54
2021/08/27 01:45:14;;;;;;;5.90;5.00;;;;;;;14.79;85.02;99013.39;115615;1198;136902;-54
2021/08/27 01:47:42;;;;;;;8.10;5.20;;;;;;;14.77;85.01;99015.23;115711;1202;22562;-53
2021/08/27 01:50:12;;;;;;;6.10;4.60;;;;;;;14.76;85.10;99008.16;115625;1198;138191;-54
2021/08/27 01:52:40;;;;;;;7.20;5.10;;;;;;;14.76;85.16;99009.92;115640;1205;22131;-53
2021/08/27 01:55:09;;;;;;;8.80;6.20;;;;;;;14.75;85.18;99011.21;115656;1204;22362;-54
2021/08/27 01:57:37;;;;;;;7.60;5.60;;;;;;;14.73;85.22;99005.56;115532;1199;137386;-54
2021/08/27 02:00:06;;;;;;;6.70;5.80;;;;;;;14.72;85.15;99004.45;115642;1208;22268;-54
2021/08/27 02:02:34;;;;;;;6.80;6.00;;;;;;;14.69;85.17;99006.31;115462;1199;138755;-54
2021/08/27 02:05:04;;;;;;;9.10;6.30;;;;;;;14.67;85.20;99007.27;115475;1208;22331;-54
2021/08/27 02:07:32;;;;;;;15.20;7.20;;;;;;;14.64;85.14;99003.73;115485;1198;137449;-54
2021/08/27 02:10:00;;;;;;;10.30;7.50;;;;;;;14.61;85.00;98999.45;115715;1202;22375;-54
2021/08/27 02:12:29;;;;;;;8.10;7.30;;;;;;;14.56;85.11;98996.38;115528;1204;22333;-53
2021/08/27 02:14:58;;;;;;;8.60;7.20;;;;;;;14.50;85.25;99000.45;115439;1201;138117;-53
2021/08/27 02:17:26;;;;;;;8.60;7.70;;;;;;;14.45;85.25;99001.93;115519;1205;22241;-54
2021/08/27 02:19:54;;;;;;;9.80;7.40;;;;;;;14.40;85.37;99008.83;115615;1199;137582;-54
2021/08/27 02:22:27;;;;;;;8.00;7.20;;;;;;;14.38;85.62;99016.20;115617;1203;22302;-53
2021/08/27 02:25:12;;;;;;;8.10;7.30;;;;;;;14.39;85.91;99021.80;115556;1204;22366;-53
2021/08/27 02:27:40;;;;;;;8.10;7.20;;;;;;;14.39;86.04;99028.48;115413;1201;137228;-54
2021/08/27 02:30:09;;;;;;;8.40;7.20;;;;;;;14.39;86.05;99031.84;115619;1203;22364;-54
2021/08/27 02:32:37;;;;;;;8.00;7.20;;;;;;;14.39;86.13;99030.89;115481;1199;137702;-54
2021/08/27 02:35:06;;;;;;;8.00;7.10;;;;;;;14.40;86.06;99028.94;115518;1204;22365;-54
2021/08/27 02:37:36;;;;;;;9.40;6.90;;;;;;;14.35;85.97;99028.52;115647;1199;138792;-54
2021/08/27 02:40:05;;;;;;;7.40;6.70;;;;;;;14.31;86.00;99030.28;115660;1204;23055;-54
2021/08/27 02:42:33;;;;;;;8.60;7.70;;;;;;;14.32;86.22;99035.64;115623;1208;23504;-54
2021/08/27 02:45:03;;;;;;;8.20;7.40;;;;;;;14.33;86.36;99042.53;115590;1199;137324;-54
2021/08/27 02:47:31;;;;;;;8.30;7.50;;;;;;;14.33;86.32;99040.05;115573;1204;22468;-54
2021/08/27 02:50:09;;;;;;;10.60;8.10;;;;;;;14.33;86.32;99037.32;115572;1199;137146;-55
2021/08/27 02:52:42;;;;;;;8.60;7.80;;;;;;;14.35;86.43;99039.45;115626;1203;22379;-54
2021/08/27 02:55:22;;;;;;;8.20;7.20;;;;;;;14.35;86.41;99049.64;115499;1204;23308;-54
2021/08/27 02:57:57;;;;;;;8.40;7.40;;;;;;;14.34;86.27;99056.27;115582;1198;138388;-54
2021/08/27 03:00:26;;;;;;;8.40;7.50;;;;;;;14.36;86.41;99065.46;115560;1204;22337;-54
2021/08/27 03:02:54;;;;;;;9.10;8.20;;;;;;;14.37;86.36;99070.61;115415;1201;137378;-54
2021/08/27 03:05:24;;;;;;;10.70;9.30;;;;;;;14.37;86.32;99073.51;115703;1203;22380;-54
2021/08/27 03:07:58;;;;;;;12.60;9.90;;;;;;;14.38;86.32;99076.79;115631;1199;138229;-54
2021/08/27 03:11:11;;;;;;;11.00;9.20;;;;;;;14.37;86.12;99075.33;115596;1202;23004;-54
2021/08/27 03:13:50;;;;;;;16.30;10.50;;;;;;;14.35;86.21;99071.28;115132;1205;137853;-54
2021/08/27 03:16:19;;;;;;;13.40;10.40;;;;;;;14.35;86.14;99079.02;115218;1208;22284;-54
2021/08/27 03:18:56;;;;;;;15.20;9.30;;;;;;;14.34;86.02;99084.56;115257;1209;22350;-54
2021/08/27 03:21:31;;;;;;;;;;;;;;;14.31;85.93;99090.35;115181;1205;137930;-54
2021/08/27 03:24:07;;;;;;;11.50;10.00;;;;;;;14.30;85.89;99097.60;115245;1208;22286;-54
2021/08/27 03:26:35;;;;;;;12.50;9.10;;;;;;;14.27;85.87;99099.02;115133;1204;139184;-54
2021/08/27 03:29:05;;;;;;;12.80;9.60;;;;;;;14.23;85.76;99096.86;115226;1215;22389;-54
2021/08/27 03:31:33;;;;;;;11.20;9.40;;;;;;;14.23;85.84;99098.95;115102;1205;138655;-54
2021/08/27 03:34:01;;;;;;;11.80;9.10;;;;;;;14.21;85.80;99104.39;115144;1210;22974;-54
2021/08/27 03:36:30;;;;;;;10.00;8.80;;;;;;;14.19;85.82;99102.61;115261;1209;22353;-55
2021/08/27 03:38:59;;;;;;;9.80;8.20;;;;;;;14.17;85.89;99099.89;115120;1204;137843;-54
2021/08/27 03:41:29;;;;;;;9.70;7.60;;;;;;;14.16;85.74;99095.08;115221;1208;22411;-54
2021/08/27 03:43:58;;;;;;;8.90;7.30;;;;;;;14.13;85.55;99096.21;115174;1205;138670;-54
2021/08/27 03:46:26;;;;;;;10.70;7.50;;;;;;;14.10;85.36;99106.06;115272;1209;22360;-54
2021/08/27 03:48:55;;;;;;;9.00;6.80;;;;;;;14.06;85.32;99107.69;115309;1203;22422;-54
2021/08/27 03:51:23;;;;;;;10.30;7.40;;;;;;;14.03;85.41;99102.61;115384;1201;138360;-54
2021/08/27 03:54:13;;;;;;;8.50;7.40;;;;;;;14.00;85.24;99107.08;115536;1210;23158;-54
2021/08/27 03:56:41;;;;;;;12.50;6.40;;;;;;;13.99;85.37;99106.96;115492;1199;139131;-54
2021/08/27 03:59:10;;;;;;;10.40;8.10;;;;;;;13.99;85.41;99106.58;115594;1208;22288;-54
2021/08/27 04:01:39;;;;;;;9.10;7.50;;;;;;;13.97;85.41;99101.61;115436;1198;137983;-54
2021/08/27 04:04:07;;;;;;;12.20;7.80;;;;;;;13.95;85.58;99107.88;115556;1204;23338;-54
2021/08/27 04:06:35;;;;;;;10.80;7.40;;;;;;;13.94;85.51;99101.25;115709;1205;22308;-54
2021/08/27 04:09:03;;;;;;;10.60;8.00;;;;;;;13.92;85.69;99099.52;115631;1199;137724;-54
2021/08/27 04:11:46;;;;;;;10.40;8.20;;;;;;;13.89;85.74;99096.53;115720;1205;22356;-54
2021/08/27 04:14:14;;;;;;;12.40;7.70;;;;;;;13.90;85.72;99097.45;115659;1199;138780;-54
2021/08/27 04:16:43;;;;;;;9.90;7.20;;;;;;;13.90;85.94;99097.34;115706;1205;22288;-54
2021/08/27 04:19:12;;;;;;;8.90;7.70;;;;;;;13.91;86.04;99095.08;115755;1203;22415;-54
2021/08/27 04:21:40;;;;;;;9.40;7.70;;;;;;;13.92;85.98;99096.45;115596;1201;137438;-54
2021/08/27 04:24:09;;;;;;;9.60;7.80;;;;;;;13.92;86.09;99099.30;115703;1204;22312;-54
2021/08/27 04:26:38;;;;;;;8.30;7.40;;;;;;;13.94;86.12;99101.30;115639;1199;137756;-54
2021/08/27 04:29:10;;;;;;;7.80;6.80;;;;;;;13.97;86.15;99099.69;115595;1205;22297;-54
2021/08/27 04:31:39;;;;;;;9.10;7.20;;;;;;;14.00;86.19;99099.91;115620;1199;137999;-54
2021/08/27 04:34:07;;;;;;;7.60;6.50;;;;;;;14.03;86.12;99103.77;115663;1201;22316;-54
2021/08/27 04:36:35;;;;;;;7.70;6.70;;;;;;;14.04;85.89;99104.59;115768;1208;23398;-54
2021/08/27 04:39:05;;;;;;;9.10;6.50;;;;;;;14.06;85.84;99109.27;115602;1199;138871;-49
2021/08/27 04:41:34;;;;;;;7.00;6.00;;;;;;;14.06;85.77;99110.21;115727;1201;22312;-54
2021/08/27 04:44:02;;;;;;;8.90;6.30;;;;;;;14.06;85.64;99108.29;115621;1199;137622;-54
2021/08/27 04:46:30;;;;;;;8.80;6.90;;;;;;;14.07;85.62;99102.25;115726;1202;22556;-54
2021/08/27 04:48:59;;;;;;;7.10;6.40;;;;;;;14.08;85.54;99104.77;115723;1207;22378;-54
2021/08/27 04:51:27;;;;;;;7.50;6.70;;;;;;;14.09;85.42;99109.36;115637;1199;138475;-54
2021/08/27 04:53:55;;;;;;;8.80;6.80;;;;;;;14.10;85.42;99111.48;115760;1203;23043;-54
2021/08/27 04:56:23;;;;;;;8.00;7.10;;;;;;;14.12;85.33;99112.19;115620;1198;137777;-54
2021/08/27 04:58:52;;;;;;;8.20;7.00;;;;;;;14.13;85.42;99114.95;115772;1209;22248;-54
2021/08/27 05:01:21;;;;;;;8.80;7.60;;;;;;;14.15;85.21;99114.86;115716;1202;22470;-54
2021/08/27 05:03:49;;;;;;;10.70;7.50;;;;;;;14.15;85.25;99111.63;115598;1202;137957;-54
2021/08/27 05:06:18;;;;;;;8.60;7.30;;;;;;;14.16;85.30;99109.76;115736;1206;22297;-54
2021/08/27 05:08:46;;;;;;;8.50;7.00;;;;;;;14.15;85.20;99102.64;115655;1205;137704;-54
2021/08/27 05:11:13;;;;;;;9.90;7.50;;;;;;;14.13;84.99;99098.67;115755;1205;22520;-54
2021/08/27 05:13:41;;;;;;;8.90;7.50;;;;;;;14.12;85.14;99099.85;115655;1199;138312;-54
2021/08/27 05:16:09;;;;;;;16.00;8.20;;;;;;;14.13;85.26;99100.06;115694;1209;22334;-54
2021/08/27 05:18:38;;;;;;;8.60;7.20;;;;;;;14.14;85.36;99103.48;115699;1205;23078;-55
2021/08/27 05:21:06;;;;;;;9.20;7.30;;;;;;;14.16;85.32;99097.32;115635;1199;137310;-55
2021/08/27 05:23:34;;;;;;;8.00;7.20;;;;;;;14.18;85.41;99101.91;115726;1203;22322;-55
2021/08/27 05:26:02;;;;;;;8.80;7.90;;;;;;;14.23;85.25;99106.40;115600;1199;138731;-55
2021/08/27 05:28:30;;;;;;;7.20;6.50;;;;;;;14.27;85.51;99110.36;115725;1205;22351;-54
2021/08/27 05:30:58;;;;;;;8.00;6.80;;;;;;;14.33;85.44;99110.34;115760;1205;22486;-54
2021/08/27 05:33:26;;;;;;;7.90;7.10;;;;;;;14.39;85.45;99114.23;115655;1200;138654;-54
2021/08/27 05:35:54;;;;;;;10.60;8.10;;;;;;;14.48;85.50;99110.89;115722;1202;22202;-54
2021/08/27 05:38:23;;;;;;;8.70;6.70;;;;;;;14.62;85.53;99104.13;115590;1199;137611;-54
2021/08/27 05:40:51;;;;;;;6.80;6.10;;;;;;;14.78;85.27;99098.70;115753;1203;22809;-54
2021/08/27 05:43:19;;;;;;;8.70;6.50;;;;;;;14.98;85.20;99098.46;115725;1202;22307;-54
2021/08/27 05:45:47;;;;;;;8.40;5.90;;;;;;;15.19;84.71;99105.01;115592;1199;137414;-54
2021/08/27 05:48:15;;;;;;;7.90;6.20;;;;;;;15.38;84.17;99110.85;115771;1205;23315;-54
2021/08/27 05:50:43;;;;;;;7.00;5.60;;;;;;;15.52;83.39;99111.17;115504;1201;138078;-54
2021/08/27 05:53:11;;;;;;;6.30;5.60;;;;;;;15.62;82.65;99110.73;115657;1204;23233;-55
2021/08/27 05:55:39;;;;;;;6.20;5.60;;;;;;;15.71;82.14;99113.17;115574;1202;137824;-54
2021/08/27 05:58:07;;;;;;;5.80;5.20;;;;;;;15.81;81.78;99114.92;115743;1205;22315;-54
2021/08/27 06:00:35;;;;;;;5.60;5.00;;;;;;;15.90;81.09;99105.73;115776;1209;22352;-54
2021/08/27 06:03:04;;;;;;;5.80;4.80;;;;;;;15.99;81.09;99102.89;115647;1201;138301;-54
2021/08/27 06:05:32;;;;;;;5.10;4.50;;;;;;;16.10;80.78;99104.70;115767;1202;22303;-54
2021/08/27 06:08:00;;;;;;;6.90;4.90;;;;;;;16.22;80.54;99105.02;115552;1198;137908;-54
2021/08/27 06:10:28;;;;;;;9.80;5.20;;;;;;;16.34;79.90;99104.23;115562;1205;23103;-54
2021/08/27 06:12:56;;;;;;;5.70;4.60;;;;;;;16.42;79.70;99099.78;115770;1201;22335;-54
2021/08/27 06:15:24;;;;;;;5.40;4.60;;;;;;;16.50;79.40;99100.25;115627;1202;138779;-54
2021/08/27 06:17:52;;;;;;;4.80;4.30;;;;;;;16.59;78.96;99101.45;115725;1205;22329;-54
2021/08/27 06:20:20;;;;;;;5.30;4.70;;;;;;;16.64;78.62;99099.73;115604;1199;138111;-54
2021/08/27 06:22:48;;;;;;;4.10;3.40;;;;;;;16.69;78.34;99103.30;115664;1205;22384;-54
2021/08/27 06:25:18;;;;;;;6.50;3.50;;;;;;;16.74;77.50;99101.98;115794;1208;22351;-54
2021/08/27 06:27:46;;;;;;;6.60;3.50;;;;;;;16.77;77.15;99104.27;115629;1202;138317;-54
2021/08/27 06:30:14;;;;;;;6.10;3.50;;;;;;;16.82;76.62;99109.30;115764;1205;22374;-54
2021/08/27 06:32:42;;;;;;;5.90;3.60;;;;;;;16.83;76.07;99100.59;115628;1198;139844;-54
2021/08/27 06:35:11;;;;;;;3.60;3.00;;;;;;;16.83;76.65;99099.27;115724;1201;23168;-54
2021/08/27 06:40:26;;;;;;;5.90;3.80;;;;;;;17.00;76.90;99104.05;113560;1206;22477;-54
2021/08/27 06:42:55;;;;;;;5.70;3.10;;;;;;;17.09;76.57;99104.39;115748;1202;23043;-54
2021/08/27 06:45:23;;;;;;;4.90;3.30;;;;;;;17.14;75.82;99106.70;115590;1209;137641;-55
2021/08/27 06:47:51;;;;;;;4.70;3.20;;;;;;;17.17;75.60;99104.60;115766;1209;23015;-55
2021/08/27 06:50:19;;;;;;;7.00;2.90;;;;;;;17.19;75.41;99106.23;115618;1199;137788;-55
2021/08/27 06:52:47;;;;;;;7.40;3.00;;;;;;;17.21;75.27;99108.23;115770;1205;22403;-55
2021/08/27 06:55:16;;;;;;;4.50;3.30;;;;;;;17.23;74.93;99113.13;115748;1206;22334;-55
2021/08/27 06:57:46;;;;;;;6.20;3.20;;;;;;;17.27;74.79;99117.02;115664;1198;137689;-54
2021/08/27 07:00:15;;;;;;;6.30;3.20;;;;;;;17.33;74.92;99115.27;115684;1208;22261;-54
2021/08/27 07:02:45;;;;;;;4.70;2.90;;;;;;;17.40;74.15;99121.27;115666;1198;137734;-55
2021/08/27 07:05:15;;;;;;;4.20;2.70;;;;;;;17.44;73.49;99121.73;115776;1201;22394;-56
2021/08/27 07:07:43;;;;;;;4.20;3.00;;;;;;;17.45;73.30;99127.88;115607;1198;137991;-54
2021/08/27 07:10:16;;;;;;;3.20;2.50;;;;;;;17.47;72.98;99125.48;115772;1206;22314;-54
2021/08/27 07:12:44;;;;;;;5.60;2.50;;;;;;;17.51;72.67;99121.81;115752;1204;22337;-55
2021/08/27 07:15:12;;;;;;;5.30;3.00;;;;;;;17.56;72.58;99122.48;115605;1198;137950;-54
2021/08/27 07:17:41;;;;;;;5.30;2.80;;;;;;;17.61;71.93;99126.45;115799;1205;22980;-54
2021/08/27 07:20:09;;;;;;;4.60;3.40;;;;;;;17.64;71.44;99131.27;115409;1201;138324;-55
2021/08/27 07:22:38;;;;;;;5.00;2.60;;;;;;;17.68;71.79;99133.60;115657;1205;22392;-54
2021/08/27 07:25:07;;;;;;;5.80;3.50;;;;;;;17.71;71.87;99134.70;115733;1201;22364;-55
2021/08/27 07:27:35;;;;;;;5.50;3.00;;;;;;;17.74;71.44;99138.73;115592;1198;138099;-55
2021/08/27 07:30:05;;;;;;;6.70;3.00;;;;;;;17.75;71.26;99144.56;115750;1201;22355;-55
2021/08/27 07:32:33;;;;;;;4.10;2.60;;;;;;;17.75;71.05;99142.52;115630;1202;140017;-55
2021/08/27 07:35:02;;;;;;;4.00;2.30;;;;;;;17.77;71.15;99140.42;115716;1202;22177;-55
2021/08/27 07:37:31;;;;;;;6.10;2.70;;;;;;;17.81;70.55;99144.84;115641;1198;137691;-57
2021/08/27 07:39:59;;;;;;;4.10;2.90;;;;;;;17.84;70.41;99148.36;115797;1205;22322;-55
2021/08/27 07:42:27;;;;;;;3.60;2.60;;;;;;;17.86;70.34;99150.23;115756;1205;22244;-56
2021/08/27 07:44:55;;;;;;;5.20;3.40;;;;;;;17.89;70.30;99152.96;115630;1198;137658;-55
2021/08/27 07:48:19;;;;;;;5.60;3.20;;;;;;;17.89;70.23;99156.73;115769;1203;22291;-56
2021/08/27 07:50:47;;;;;;;5.00;2.50;;;;;;;17.88;70.01;99163.25;115618;1198;137732;-55
2021/08/27 07:53:16;;;;;;;3.70;2.20;;;;;;;17.87;69.23;99159.38;115731;1205;22223;-56
2021/08/27 07:55:44;;;;;;;3.10;2.80;;;;;;;17.86;69.56;99155.73;115645;1198;139303;-55
2021/08/27 07:58:12;;;;;;;3.10;2.50;;;;;;;17.91;69.72;99157.41;115693;1201;22316;-54
2021/08/27 08:00:40;;;;;;;3.10;2.30;;;;;;;17.98;70.03;99154.86;115757;1208;23099;-53
2021/08/27 08:03:08;;;;;;;5.90;2.80;;;;;;;18.08;69.80;99154.48;115683;1202;138067;-55
2021/08/27 08:05:36;;;;;;;4.70;2.50;;;;;;;18.17;68.77;99158.57;115573;1209;22338;-54
2021/08/27 08:08:07;;;;;;;6.30;2.40;;;;;;;18.17;68.08;99161.82;115657;1199;138970;-55
2021/08/27 08:10:35;;;;;;;3.50;2.60;;;;;;;18.13;68.00;99165.52;115784;1205;22269;-55
2021/08/27 08:13:03;;;;;;;3.60;2.50;;;;;;;18.11;67.83;99161.88;115746;1201;22307;-58
2021/08/27 08:15:31;;;;;;;3.20;2.70;;;;;;;18.11;67.98;99167.00;115546;1202;137983;-56
2021/08/27 08:18:00;;;;;;;3.00;2.60;;;;;;;18.15;68.30;99164.04;115801;1202;22319;-56
2021/08/27 08:20:28;;;;;;;7.00;2.60;;;;;;;18.22;68.86;99161.66;115628;1198;138616;-56
2021/08/27 08:23:01;;;;;;;5.40;2.60;;;;;;;18.34;68.44;99161.46;115759;1202;22227;-56
2021/08/27 08:25:29;;;;;;;6.90;3.10;;;;;;;18.43;67.92;99159.82;115747;1205;22090;-56
2021/08/27 08:27:57;;;;;;;8.30;3.10;;;;;;;18.54;66.92;99164.11;115679;1203;138422;-56
2021/08/27 08:30:25;;;;;;;6.10;2.80;;;;;;;18.59;65.96;99164.16;115709;1202;23115;-56
2021/08/27 08:32:54;;;;;;;5.30;3.20;;;;;;;18.61;65.65;99166.95;115651;1205;139043;-56
2021/08/27 08:35:22;;;;;;;5.70;2.80;;;;;;;18.63;65.87;99169.39;115719;1203;22379;-55
2021/08/27 08:37:53;;;;;;;4.00;2.80;;;;;;;18.66;65.88;99169.41;115525;1198;139011;-55
2021/08/27 08:40:21;;;;;;;5.20;2.90;;;;;;;18.71;65.66;99166.58;115731;1202;22421;-55
2021/08/27 08:42:49;;;;;;;4.50;3.20;;;;;;;18.77;65.60;99165.90;115717;1201;22306;-55
2021/08/27 08:45:18;;;;;;;6.90;3.00;;;;;;;18.82;65.09;99166.54;115494;1201;137997;-56
2021/08/27 08:47:47;;;;;;;3.90;3.20;;;;;;;18.82;64.97;99167.41;115751;1203;22289;-55
2021/08/27 08:50:16;;;;;;;4.30;2.90;;;;;;;18.81;65.59;99165.39;115541;1199;138247;-55
2021/08/27 08:52:44;;;;;;;4.70;3.20;;;;;;;18.82;65.40;99167.31;115797;1203;23076;-55
2021/08/27 08:55:15;;;;;;;4.10;2.80;;;;;;;18.79;64.89;99171.52;115594;1205;23029;-55
2021/08/27 08:57:43;;;;;;;4.40;3.50;;;;;;;18.75;64.76;99177.33;115534;1200;138451;-55
2021/08/27 09:00:12;;;;;;;10.20;3.50;;;;;;;18.69;64.62;99175.78;115724;1201;22347;-54
2021/08/27 09:02:40;;;;;;;11.70;3.40;;;;;;;18.65;64.01;99184.46;115675;1203;138034;-55
2021/08/27 09:05:09;;;;;;;7.10;3.40;;;;;;;18.62;64.31;99183.45;115726;1206;22348;-55
2021/08/27 09:07:37;;;;;;;3.80;3.10;;;;;;;18.62;64.56;99181.56;115682;1199;138699;-54
2021/08/27 09:10:22;;;;;;;7.20;3.60;;;;;;;18.64;63.96;99181.66;115734;1202;22368;-55
2021/08/27 09:12:51;;;;;;;7.10;3.20;;;;;;;18.65;63.81;99184.34;115833;1202;22310;-55
2021/08/27 09:15:21;;;;;;;6.70;3.50;;;;;;;18.66;64.01;99183.05;115596;1198;137796;-55
2021/08/27 09:17:50;;;;;;;8.00;2.90;;;;;;;18.67;63.65;99184.06;115756;1206;22313;-56
2021/08/27 09:20:28;;;;;;;11.30;3.20;;;;;;;18.68;63.53;99184.94;115600;1210;137795;-55
2021/08/27 09:23:00;;;;;;;8.60;2.90;;;;;;;18.68;64.10;99185.36;115678;1203;24328;-56
2021/08/27 09:25:33;;;;;;;3.10;2.70;;;;;;;18.72;64.64;99183.55;115667;1202;22449;-55
2021/08/27 09:28:09;;;;;;;5.30;3.10;;;;;;;18.76;63.87;99186.48;112207;1198;137498;-55
2021/08/27 09:30:47;;;;;;;3.30;3.00;;;;;;;18.81;64.43;99186.14;111379;1203;22458;-55
2021/08/27 09:33:22;;;;;;;7.30;3.40;;;;;;;18.87;64.19;99188.02;115571;1198;138980;-55
2021/08/27 09:36:04;;;;;;;3.70;3.00;;;;;;;18.92;62.91;99183.05;115335;1208;22418;-55
2021/08/27 09:38:35;;;;;;;3.70;2.70;;;;;;;18.96;62.60;99184.37;115132;1201;137683;-55
2021/08/27 09:41:13;;;;;;;4.30;3.10;;;;;;;19.01;62.55;99182.15;115330;1205;22388;-55
2021/08/27 09:43:50;;;;;;;4.40;3.00;;;;;;;19.07;62.91;99183.27;115194;1202;137904;-55
2021/08/27 09:46:31;;;;;;;3.80;3.40;;;;;;;19.13;63.28;99188.23;115358;1206;23047;-55
2021/08/27 09:49:00;;;;;;;3.20;2.80;;;;;;;19.19;63.09;99188.50;115461;1205;23425;-54
2021/08/27 09:51:39;;;;;;;;;;;;;;;19.23;62.95;99189.15;115214;1205;140137;-55
2021/08/27 09:54:08;;;;;;;6.00;3.20;;;;;;;19.27;63.10;99190.30;115509;1205;22326;-55
2021/08/27 09:56:46;;;;;;;5.30;3.20;;;;;;;19.29;62.54;99187.35;115644;1198;138831;-55
2021/08/27 09:59:16;;;;;;;4.50;3.20;;;;;;;19.33;63.15;99188.94;115767;1209;22331;-55
2021/08/27 10:01:48;;;;;;;8.50;3.40;;;;;;;19.37;63.16;99185.73;115670;1198;137926;-55
2021/08/27 10:04:16;;;;;;;4.70;2.50;;;;;;;19.44;62.84;99186.67;115682;1202;23219;-55
2021/08/27 10:06:45;;;;;;;4.10;3.00;;;;;;;19.51;62.81;99189.61;115720;1206;22092;-55
2021/08/27 10:09:16;;;;;;;4.00;3.00;;;;;;;19.59;62.65;99184.73;115280;1205;137712;-55
2021/08/27 10:11:58;;;;;;;4.50;3.10;;;;;;;19.68;61.87;99184.16;115695;1204;23019;-55
2021/08/27 10:14:27;;;;;;;10.20;3.20;;;;;;;19.73;60.87;99188.14;115432;1200;140383;-55
2021/08/27 10:17:01;;;;;;;4.10;3.20;;;;;;;19.76;60.71;99190.85;115795;1202;22982;-55
2021/08/27 10:19:31;;;;;;;6.50;3.30;;;;;;;19.78;61.37;99192.60;115785;1203;22325;-55
2021/08/27 10:22:01;;;;;;;2.80;2.50;;;;;;;19.82;60.98;99190.23;115593;1202;137455;-55
2021/08/27 10:24:32;;;;;;;4.00;3.00;;;;;;;19.84;60.13;99183.39;115767;1202;22316;-55
2021/08/27 10:27:00;;;;;;;5.70;3.10;;;;;;;19.85;59.92;99181.33;115583;1198;137632;-55
2021/08/27 10:29:29;;;;;;;5.70;3.20;;;;;;;19.86;60.52;99168.79;115431;1204;22373;-56
2021/08/27 10:31:57;;;;;;;4.10;2.80;;;;;;;19.90;59.96;99169.73;115625;1198;138340;-55
2021/08/27 10:34:42;;;;;;;3.80;3.10;;;;;;;19.90;58.87;99171.81;115649;1209;22555;-55
2021/08/27 10:37:43;;;;;;;7.90;3.00;;;;;;;19.87;59.06;99170.77;115811;1202;22286;-55
2021/08/27 10:40:25;;;;;;;6.80;3.10;;;;;;;19.84;58.89;99168.60;115636;1198;138123;-55
2021/08/27 10:42:58;;;;;;;4.00;3.20;;;;;;;19.80;58.69;99167.84;115606;1205;22380;-55
2021/08/27 10:45:36;;;;;;;4.00;3.00;;;;;;;19.76;58.91;99168.73;115638;1198;137993;-56
2021/08/27 10:48:17;;;;;;;5.20;3.20;;;;;;;19.73;58.83;99164.09;115660;1205;22947;-55
2021/08/27 10:50:47;;;;;;;3.80;3.20;;;;;;;19.72;58.61;99158.60;115610;1198;139346;-55
2021/08/27 10:53:32;;;;;;;4.30;3.20;;;;;;;19.70;58.21;99161.52;115807;1202;23317;-55
2021/08/27 10:56:09;;;;;;;3.80;3.00;;;;;;;19.66;57.55;99153.98;115427;1199;138753;-56
2021/08/27 10:58:44;;;;;;;4.70;3.50;;;;;;;19.64;58.00;99155.30;115785;1202;22312;-55
2021/08/27 11:01:25;;;;;;;7.50;4.20;;;;;;;19.63;57.97;99155.18;115637;1201;22760;-55
2021/08/27 11:04:10;;;;;;;4.30;2.90;;;;;;;19.62;58.49;99155.25;115619;1202;136985;-55
2021/08/27 11:07:01;;;;;;;4.20;3.20;;;;;;;19.66;58.04;99151.54;115637;1209;23306;-56
2021/08/27 11:09:33;;;;;;;4.00;3.30;;;;;;;19.69;57.86;99145.76;115540;1198;137592;-54
2021/08/27 11:12:04;;;;;;;4.40;3.10;;;;;;;19.73;57.45;99141.27;115754;1202;22611;-54
2021/08/27 11:14:33;;;;;;;8.50;2.90;;;;;;;19.78;57.23;99143.63;115599;1199;137516;-55
2021/08/27 11:17:03;;;;;;;7.00;4.00;;;;;;;19.83;56.34;99139.71;115789;1202;23226;-55
2021/08/27 11:19:40;;;;;;;7.70;3.10;;;;;;;19.89;56.28;99142.21;115684;1202;22406;-55
2021/08/27 11:22:11;;;;;;;6.80;3.60;;;;;;;19.94;55.88;99145.83;115667;1203;137102;-55
2021/08/27 11:25:15;;;;;;;3.90;3.20;;;;;;;19.98;55.64;99147.04;115787;1201;22339;-55
2021/08/27 11:28:29;;;;;;;8.60;3.80;;;;;;;20.03;55.90;99153.24;115603;1198;137345;-55
2021/08/27 11:31:05;;;;;;;4.20;3.30;;;;;;;20.04;55.55;99156.40;115470;1204;22365;-55
2021/08/27 11:33:45;;;;;;;6.80;3.80;;;;;;;20.04;55.50;99155.34;115647;1199;137927;-55
2021/08/27 11:36:14;;;;;;;4.40;3.00;;;;;;;20.06;55.07;99156.30;115707;1201;22282;-54
2021/08/27 11:38:43;;;;;;;4.40;3.20;;;;;;;20.07;55.29;99151.04;115629;1202;137385;-54
2021/08/27 11:41:12;;;;;;;6.90;3.50;;;;;;;20.14;56.07;99155.88;115736;1205;22112;-54
2021/08/27 11:43:45;;;;;;;5.60;3.40;;;;;;;20.22;56.32;99152.49;115596;1205;22319;-54
2021/08/27 11:46:24;;;;;;;5.90;3.40;;;;;;;20.31;56.27;99160.15;115402;1200;138413;-55